sensor_id;sensor_type;location;lat;lon;timestamp;P1;durP1;ratioP1;P2;durP2;ratioP2
22201;SDS011;11266;51.522;6.302;2023-02-11T00:00:42;30.67;;;18.50;;
22201;SDS011;11266;51.522;6.302;2023-02-11T00:01:29;34.22;;;18.92;;
22201;SDS011;11266;51.522;6.302;2023-02-11T00:02:17;32.67;;;18.17;;
22201;SDS011;11266;51.522;6.302;2023-02-11T00:03:02;27.75;;;17.52;;
22201;SDS011;11266;51.522;6.302;2023-02-11T00:03:51;30.08;;;18.70;;
22201;SDS011;11266;51.522;6.302;2023-02-11T00:04:37;34.00;;;18.67;;
22201;SDS011;11266;51.522;6.302;2023-02-11T00:05:23;30.08;;;18.50;;
22201;SDS011;11266;51.522;6.302;2023-02-11T00:06:09;31.33;;;18.15;;
22201;SDS011;11266;51.522;6.302;2023-02-11T00:06:55;29.80;;;18.10;;
22201;SDS011;11266;51.522;6.302;2023-02-11T00:07:41;32.28;;;19.27;;
22201;SDS011;11266;51.522;6.302;2023-02-11T00:08:26;30.40;;;18.33;;
22201;SDS011;11266;51.522;6.302;2023-02-11T00:09:14;36.30;;;18.52;;
22201;SDS011;11266;51.522;6.302;2023-02-11T00:10:00;27.92;;;18.15;;
22201;SDS011;11266;51.522;6.302;2023-02-11T00:10:55;33.10;;;18.60;;
22201;SDS011;11266;51.522;6.302;2023-02-11T00:11:41;32.03;;;17.15;;
22201;SDS011;11266;51.522;6.302;2023-02-11T00:12:27;32.47;;;17.77;;
22201;SDS011;11266;51.522;6.302;2023-02-11T00:13:13;29.15;;;17.92;;
22201;SDS011;11266;51.522;6.302;2023-02-11T00:13:59;28.88;;;16.33;;
22201;SDS011;11266;51.522;6.302;2023-02-11T00:14:49;28.60;;;17.27;;
22201;SDS011;11266;51.522;6.302;2023-02-11T00:15:35;31.10;;;18.10;;
22201;SDS011;11266;51.522;6.302;2023-02-11T00:16:21;30.65;;;17.98;;
22201;SDS011;11266;51.522;6.302;2023-02-11T00:17:07;29.35;;;17.00;;
22201;SDS011;11266;51.522;6.302;2023-02-11T00:17:52;28.20;;;17.95;;
22201;SDS011;11266;51.522;6.302;2023-02-11T00:18:38;30.02;;;17.27;;
22201;SDS011;11266;51.522;6.302;2023-02-11T00:19:24;28.30;;;17.80;;
22201;SDS011;11266;51.522;6.302;2023-02-11T00:20:09;30.45;;;18.58;;
22201;SDS011;11266;51.522;6.302;2023-02-11T00:20:55;31.95;;;18.20;;
22201;SDS011;11266;51.522;6.302;2023-02-11T00:21:41;31.50;;;18.77;;
22201;SDS011;11266;51.522;6.302;2023-02-11T00:22:26;32.25;;;18.73;;
22201;SDS011;11266;51.522;6.302;2023-02-11T00:23:12;32.17;;;19.48;;
22201;SDS011;11266;51.522;6.302;2023-02-11T00:23:59;34.55;;;18.65;;
22201;SDS011;11266;51.522;6.302;2023-02-11T00:24:46;30.13;;;17.98;;
22201;SDS011;11266;51.522;6.302;2023-02-11T00:25:31;31.83;;;17.85;;
22201;SDS011;11266;51.522;6.302;2023-02-11T00:26:19;41.92;;;18.98;;
22201;SDS011;11266;51.522;6.302;2023-02-11T00:27:05;28.88;;;17.67;;
22201;SDS011;11266;51.522;6.302;2023-02-11T00:27:51;35.50;;;18.77;;
22201;SDS011;11266;51.522;6.302;2023-02-11T00:28:37;24.60;;;16.20;;
22201;SDS011;11266;51.522;6.302;2023-02-11T00:29:22;26.63;;;17.30;;
22201;SDS011;11266;51.522;6.302;2023-02-11T00:30:09;28.77;;;17.17;;
22201;SDS011;11266;51.522;6.302;2023-02-11T00:30:55;26.92;;;16.95;;
22201;SDS011;11266;51.522;6.302;2023-02-11T00:31:42;28.45;;;17.65;;
22201;SDS011;11266;51.522;6.302;2023-02-11T00:32:27;32.47;;;18.20;;
22201;SDS011;11266;51.522;6.302;2023-02-11T00:33:15;30.83;;;16.88;;
22201;SDS011;11266;51.522;6.302;2023-02-11T00:34:01;32.00;;;16.88;;
22201;SDS011;11266;51.522;6.302;2023-02-11T00:34:46;26.67;;;17.13;;
22201;SDS011;11266;51.522;6.302;2023-02-11T00:35:36;30.50;;;17.33;;
22201;SDS011;11266;51.522;6.302;2023-02-11T00:36:23;33.28;;;17.83;;
22201;SDS011;11266;51.522;6.302;2023-02-11T00:37:11;31.67;;;18.27;;
22201;SDS011;11266;51.522;6.302;2023-02-11T00:37:57;28.80;;;17.38;;
22201;SDS011;11266;51.522;6.302;2023-02-11T00:38:43;25.85;;;17.08;;
22201;SDS011;11266;51.522;6.302;2023-02-11T00:39:29;27.20;;;17.50;;
22201;SDS011;11266;51.522;6.302;2023-02-11T00:40:15;25.92;;;16.52;;
22201;SDS011;11266;51.522;6.302;2023-02-11T00:41:01;27.67;;;16.95;;
22201;SDS011;11266;51.522;6.302;2023-02-11T00:41:47;32.30;;;16.95;;
22201;SDS011;11266;51.522;6.302;2023-02-11T00:42:32;27.35;;;16.90;;
22201;SDS011;11266;51.522;6.302;2023-02-11T00:43:19;28.27;;;17.75;;
22201;SDS011;11266;51.522;6.302;2023-02-11T00:44:05;34.15;;;18.25;;
22201;SDS011;11266;51.522;6.302;2023-02-11T00:44:50;24.42;;;16.10;;
22201;SDS011;11266;51.522;6.302;2023-02-11T00:45:36;33.53;;;18.50;;
22201;SDS011;11266;51.522;6.302;2023-02-11T00:46:22;29.23;;;15.68;;
22201;SDS011;11266;51.522;6.302;2023-02-11T00:47:07;29.17;;;17.23;;
22201;SDS011;11266;51.522;6.302;2023-02-11T00:47:53;30.73;;;17.73;;
22201;SDS011;11266;51.522;6.302;2023-02-11T00:48:39;26.33;;;16.45;;
22201;SDS011;11266;51.522;6.302;2023-02-11T00:49:24;29.77;;;16.35;;
22201;SDS011;11266;51.522;6.302;2023-02-11T00:50:10;27.05;;;16.77;;
22201;SDS011;11266;51.522;6.302;2023-02-11T00:50:56;28.85;;;16.60;;
22201;SDS011;11266;51.522;6.302;2023-02-11T00:51:41;28.23;;;16.88;;
22201;SDS011;11266;51.522;6.302;2023-02-11T00:52:27;30.25;;;16.83;;
22201;SDS011;11266;51.522;6.302;2023-02-11T00:53:13;26.38;;;15.63;;
22201;SDS011;11266;51.522;6.302;2023-02-11T00:53:59;27.92;;;15.80;;
22201;SDS011;11266;51.522;6.302;2023-02-11T00:54:44;29.02;;;16.40;;
22201;SDS011;11266;51.522;6.302;2023-02-11T00:55:30;27.48;;;15.50;;
22201;SDS011;11266;51.522;6.302;2023-02-11T00:56:16;31.50;;;17.02;;
22201;SDS011;11266;51.522;6.302;2023-02-11T00:57:01;29.77;;;16.00;;
22201;SDS011;11266;51.522;6.302;2023-02-11T00:57:47;25.25;;;15.60;;
22201;SDS011;11266;51.522;6.302;2023-02-11T00:58:32;27.25;;;15.65;;
22201;SDS011;11266;51.522;6.302;2023-02-11T00:59:18;27.30;;;15.77;;
22201;SDS011;11266;51.522;6.302;2023-02-11T01:00:05;28.75;;;15.95;;
22201;SDS011;11266;51.522;6.302;2023-02-11T01:00:55;26.50;;;15.38;;
22201;SDS011;11266;51.522;6.302;2023-02-11T01:01:41;26.08;;;15.20;;
22201;SDS011;11266;51.522;6.302;2023-02-11T01:02:26;23.83;;;15.43;;
22201;SDS011;11266;51.522;6.302;2023-02-11T01:03:12;30.40;;;15.73;;
22201;SDS011;11266;51.522;6.302;2023-02-11T01:03:58;26.50;;;15.30;;
22201;SDS011;11266;51.522;6.302;2023-02-11T01:04:43;24.73;;;14.18;;
22201;SDS011;11266;51.522;6.302;2023-02-11T01:05:29;25.50;;;14.40;;
22201;SDS011;11266;51.522;6.302;2023-02-11T01:06:15;24.50;;;13.88;;
22201;SDS011;11266;51.522;6.302;2023-02-11T01:07:01;24.05;;;14.57;;
22201;SDS011;11266;51.522;6.302;2023-02-11T01:07:46;24.85;;;15.15;;
22201;SDS011;11266;51.522;6.302;2023-02-11T01:08:32;26.00;;;14.63;;
22201;SDS011;11266;51.522;6.302;2023-02-11T01:09:18;23.15;;;13.82;;
22201;SDS011;11266;51.522;6.302;2023-02-11T01:10:05;25.38;;;15.27;;
22201;SDS011;11266;51.522;6.302;2023-02-11T01:10:57;25.27;;;14.93;;
22201;SDS011;11266;51.522;6.302;2023-02-11T01:11:47;25.08;;;14.13;;
22201;SDS011;11266;51.522;6.302;2023-02-11T01:12:33;21.38;;;13.45;;
22201;SDS011;11266;51.522;6.302;2023-02-11T01:13:19;26.08;;;14.23;;
22201;SDS011;11266;51.522;6.302;2023-02-11T01:14:04;24.13;;;14.18;;
22201;SDS011;11266;51.522;6.302;2023-02-11T01:14:50;26.42;;;13.73;;
22201;SDS011;11266;51.522;6.302;2023-02-11T01:15:36;26.52;;;13.80;;
22201;SDS011;11266;51.522;6.302;2023-02-11T01:16:21;22.17;;;13.73;;
22201;SDS011;11266;51.522;6.302;2023-02-11T01:17:07;25.00;;;13.73;;
22201;SDS011;11266;51.522;6.302;2023-02-11T01:17:53;24.75;;;13.55;;
22201;SDS011;11266;51.522;6.302;2023-02-11T01:18:38;25.35;;;13.65;;
22201;SDS011;11266;51.522;6.302;2023-02-11T01:19:25;23.65;;;13.77;;
22201;SDS011;11266;51.522;6.302;2023-02-11T01:20:15;26.15;;;12.98;;
22201;SDS011;11266;51.522;6.302;2023-02-11T01:21:04;24.50;;;12.80;;
22201;SDS011;11266;51.522;6.302;2023-02-11T01:21:50;20.77;;;12.60;;
22201;SDS011;11266;51.522;6.302;2023-02-11T01:22:35;22.55;;;12.48;;
22201;SDS011;11266;51.522;6.302;2023-02-11T01:23:23;23.58;;;13.57;;
22201;SDS011;11266;51.522;6.302;2023-02-11T01:24:09;23.83;;;13.35;;
22201;SDS011;11266;51.522;6.302;2023-02-11T01:24:54;20.67;;;12.90;;
22201;SDS011;11266;51.522;6.302;2023-02-11T01:25:40;24.23;;;12.82;;
22201;SDS011;11266;51.522;6.302;2023-02-11T01:26:28;25.38;;;13.07;;
22201;SDS011;11266;51.522;6.302;2023-02-11T01:27:13;18.15;;;11.98;;
22201;SDS011;11266;51.522;6.302;2023-02-11T01:27:59;24.52;;;12.43;;
22201;SDS011;11266;51.522;6.302;2023-02-11T01:28:45;24.00;;;12.57;;
22201;SDS011;11266;51.522;6.302;2023-02-11T01:29:30;21.80;;;12.07;;
22201;SDS011;11266;51.522;6.302;2023-02-11T01:30:16;23.17;;;12.10;;
22201;SDS011;11266;51.522;6.302;2023-02-11T01:31:02;23.65;;;12.27;;
22201;SDS011;11266;51.522;6.302;2023-02-11T01:31:48;22.40;;;12.20;;
22201;SDS011;11266;51.522;6.302;2023-02-11T01:32:34;17.50;;;11.60;;
22201;SDS011;11266;51.522;6.302;2023-02-11T01:33:20;27.52;;;12.98;;
22201;SDS011;11266;51.522;6.302;2023-02-11T01:34:06;19.77;;;11.52;;
22201;SDS011;11266;51.522;6.302;2023-02-11T01:34:58;23.15;;;12.50;;
22201;SDS011;11266;51.522;6.302;2023-02-11T01:35:43;22.33;;;12.63;;
22201;SDS011;11266;51.522;6.302;2023-02-11T01:36:30;21.08;;;11.75;;
22201;SDS011;11266;51.522;6.302;2023-02-11T01:37:15;19.83;;;12.02;;
22201;SDS011;11266;51.522;6.302;2023-02-11T01:38:01;20.00;;;11.48;;
22201;SDS011;11266;51.522;6.302;2023-02-11T01:38:47;20.25;;;11.32;;
22201;SDS011;11266;51.522;6.302;2023-02-11T01:39:33;20.70;;;11.68;;
22201;SDS011;11266;51.522;6.302;2023-02-11T01:40:22;19.63;;;11.13;;
22201;SDS011;11266;51.522;6.302;2023-02-11T01:41:09;24.58;;;11.05;;
22201;SDS011;11266;51.522;6.302;2023-02-11T01:41:56;18.45;;;10.90;;
22201;SDS011;11266;51.522;6.302;2023-02-11T01:42:42;17.48;;;10.95;;
22201;SDS011;11266;51.522;6.302;2023-02-11T01:43:30;19.02;;;11.20;;
22201;SDS011;11266;51.522;6.302;2023-02-11T01:44:30;22.17;;;11.15;;
22201;SDS011;11266;51.522;6.302;2023-02-11T01:46:37;17.67;;;10.55;;
22201;SDS011;11266;51.522;6.302;2023-02-11T01:47:23;22.42;;;10.35;;
22201;SDS011;11266;51.522;6.302;2023-02-11T01:48:09;19.95;;;10.52;;
22201;SDS011;11266;51.522;6.302;2023-02-11T01:49:13;19.30;;;10.15;;
22201;SDS011;11266;51.522;6.302;2023-02-11T01:50:05;19.92;;;10.32;;
22201;SDS011;11266;51.522;6.302;2023-02-11T01:50:52;20.20;;;9.93;;
22201;SDS011;11266;51.522;6.302;2023-02-11T01:51:44;21.63;;;9.93;;
22201;SDS011;11266;51.522;6.302;2023-02-11T01:52:37;20.08;;;10.43;;
22201;SDS011;11266;51.522;6.302;2023-02-11T01:53:24;20.95;;;9.35;;
22201;SDS011;11266;51.522;6.302;2023-02-11T01:54:31;17.38;;;9.30;;
22201;SDS011;11266;51.522;6.302;2023-02-11T01:55:37;17.35;;;9.23;;
22201;SDS011;11266;51.522;6.302;2023-02-11T01:56:43;19.67;;;10.23;;
22201;SDS011;11266;51.522;6.302;2023-02-11T01:57:53;18.33;;;9.77;;
22201;SDS011;11266;51.522;6.302;2023-02-11T01:58:41;17.50;;;9.52;;
22201;SDS011;11266;51.522;6.302;2023-02-11T01:59:33;20.00;;;10.15;;
22201;SDS011;11266;51.522;6.302;2023-02-11T02:00:47;23.10;;;9.52;;
22201;SDS011;11266;51.522;6.302;2023-02-11T02:01:34;14.65;;;9.35;;
22201;SDS011;11266;51.522;6.302;2023-02-11T02:02:24;19.40;;;9.48;;
22201;SDS011;11266;51.522;6.302;2023-02-11T02:03:16;17.90;;;9.70;;
22201;SDS011;11266;51.522;6.302;2023-02-11T02:04:06;19.35;;;9.50;;
22201;SDS011;11266;51.522;6.302;2023-02-11T02:05:02;17.23;;;9.15;;
22201;SDS011;11266;51.522;6.302;2023-02-11T02:06:12;18.80;;;9.43;;
22201;SDS011;11266;51.522;6.302;2023-02-11T02:07:02;20.35;;;9.05;;
22201;SDS011;11266;51.522;6.302;2023-02-11T02:09:25;14.68;;;8.82;;
22201;SDS011;11266;51.522;6.302;2023-02-11T02:10:15;14.90;;;8.82;;
22201;SDS011;11266;51.522;6.302;2023-02-11T02:11:04;15.18;;;8.90;;
22201;SDS011;11266;51.522;6.302;2023-02-11T02:11:50;18.52;;;9.48;;
22201;SDS011;11266;51.522;6.302;2023-02-11T02:12:36;20.38;;;9.75;;
22201;SDS011;11266;51.522;6.302;2023-02-11T02:13:22;22.50;;;9.82;;
22201;SDS011;11266;51.522;6.302;2023-02-11T02:14:11;22.33;;;8.95;;
22201;SDS011;11266;51.522;6.302;2023-02-11T02:16:09;15.95;;;8.80;;
22201;SDS011;11266;51.522;6.302;2023-02-11T02:16:57;16.17;;;8.93;;
22201;SDS011;11266;51.522;6.302;2023-02-11T02:17:47;22.20;;;8.82;;
22201;SDS011;11266;51.522;6.302;2023-02-11T02:21:04;19.50;;;10.07;;
22201;SDS011;11266;51.522;6.302;2023-02-11T02:23:28;20.73;;;8.88;;
22201;SDS011;11266;51.522;6.302;2023-02-11T02:25:51;20.48;;;8.77;;
22201;SDS011;11266;51.522;6.302;2023-02-11T02:34:08;18.45;;;8.70;;
22201;SDS011;11266;51.522;6.302;2023-02-11T02:35:09;14.50;;;8.43;;
22201;SDS011;11266;51.522;6.302;2023-02-11T02:36:19;13.52;;;8.65;;
22201;SDS011;11266;51.522;6.302;2023-02-11T02:38:23;16.08;;;8.57;;
22201;SDS011;11266;51.522;6.302;2023-02-11T02:39:25;17.17;;;8.02;;
22201;SDS011;11266;51.522;6.302;2023-02-11T02:40:19;20.85;;;9.15;;
22201;SDS011;11266;51.522;6.302;2023-02-11T02:41:10;17.27;;;8.38;;
22201;SDS011;11266;51.522;6.302;2023-02-11T02:41:59;16.75;;;8.80;;
22201;SDS011;11266;51.522;6.302;2023-02-11T02:42:45;15.13;;;8.75;;
22201;SDS011;11266;51.522;6.302;2023-02-11T02:43:32;15.43;;;8.55;;
22201;SDS011;11266;51.522;6.302;2023-02-11T02:44:19;15.55;;;8.60;;
22201;SDS011;11266;51.522;6.302;2023-02-11T02:45:06;15.73;;;8.32;;
22201;SDS011;11266;51.522;6.302;2023-02-11T02:46:05;18.05;;;8.90;;
22201;SDS011;11266;51.522;6.302;2023-02-11T02:46:57;17.58;;;8.63;;
22201;SDS011;11266;51.522;6.302;2023-02-11T02:47:43;15.98;;;9.02;;
22201;SDS011;11266;51.522;6.302;2023-02-11T02:48:29;22.08;;;8.43;;
22201;SDS011;11266;51.522;6.302;2023-02-11T02:49:16;19.33;;;8.80;;
22201;SDS011;11266;51.522;6.302;2023-02-11T02:50:04;14.95;;;7.53;;
22201;SDS011;11266;51.522;6.302;2023-02-11T02:50:52;16.58;;;8.50;;
22201;SDS011;11266;51.522;6.302;2023-02-11T02:52:06;17.42;;;8.00;;
22201;SDS011;11266;51.522;6.302;2023-02-11T02:53:37;13.02;;;8.15;;
22201;SDS011;11266;51.522;6.302;2023-02-11T02:56:12;14.50;;;7.53;;
22201;SDS011;11266;51.522;6.302;2023-02-11T02:57:26;15.60;;;7.93;;
22201;SDS011;11266;51.522;6.302;2023-02-11T02:58:22;13.00;;;7.70;;
22201;SDS011;11266;51.522;6.302;2023-02-11T03:01:23;17.90;;;8.02;;
22201;SDS011;11266;51.522;6.302;2023-02-11T03:02:35;15.95;;;7.65;;
22201;SDS011;11266;51.522;6.302;2023-02-11T03:03:36;13.57;;;7.68;;
22201;SDS011;11266;51.522;6.302;2023-02-11T03:04:31;15.05;;;7.78;;
22201;SDS011;11266;51.522;6.302;2023-02-11T03:06:29;13.23;;;7.35;;
22201;SDS011;11266;51.522;6.302;2023-02-11T03:08:33;16.25;;;7.55;;
22201;SDS011;11266;51.522;6.302;2023-02-11T03:09:23;16.23;;;7.88;;
22201;SDS011;11266;51.522;6.302;2023-02-11T03:10:35;12.80;;;7.22;;
22201;SDS011;11266;51.522;6.302;2023-02-11T03:11:24;20.60;;;7.68;;
22201;SDS011;11266;51.522;6.302;2023-02-11T03:12:11;13.98;;;7.53;;
22201;SDS011;11266;51.522;6.302;2023-02-11T03:12:58;14.00;;;8.13;;
22201;SDS011;11266;51.522;6.302;2023-02-11T03:13:46;20.77;;;7.45;;
22201;SDS011;11266;51.522;6.302;2023-02-11T03:14:35;15.18;;;7.88;;
22201;SDS011;11266;51.522;6.302;2023-02-11T03:15:23;13.43;;;7.40;;
22201;SDS011;11266;51.522;6.302;2023-02-11T03:16:17;16.92;;;7.45;;
22201;SDS011;11266;51.522;6.302;2023-02-11T03:17:06;17.15;;;7.28;;
22201;SDS011;11266;51.522;6.302;2023-02-11T03:17:53;17.13;;;7.60;;
22201;SDS011;11266;51.522;6.302;2023-02-11T03:18:43;15.70;;;7.47;;
22201;SDS011;11266;51.522;6.302;2023-02-11T03:19:35;16.95;;;6.80;;
22201;SDS011;11266;51.522;6.302;2023-02-11T03:20:26;18.85;;;7.28;;
22201;SDS011;11266;51.522;6.302;2023-02-11T03:21:17;12.30;;;6.97;;
22201;SDS011;11266;51.522;6.302;2023-02-11T03:22:05;15.05;;;7.18;;
22201;SDS011;11266;51.522;6.302;2023-02-11T03:22:57;13.93;;;6.88;;
22201;SDS011;11266;51.522;6.302;2023-02-11T03:23:54;14.32;;;6.78;;
22201;SDS011;11266;51.522;6.302;2023-02-11T03:24:41;16.05;;;7.53;;
22201;SDS011;11266;51.522;6.302;2023-02-11T03:25:29;19.05;;;8.05;;
22201;SDS011;11266;51.522;6.302;2023-02-11T03:26:23;17.80;;;7.63;;
22201;SDS011;11266;51.522;6.302;2023-02-11T03:30:34;12.43;;;6.90;;
22201;SDS011;11266;51.522;6.302;2023-02-11T03:32:24;12.35;;;6.93;;
22201;SDS011;11266;51.522;6.302;2023-02-11T03:33:19;14.05;;;6.85;;
22201;SDS011;11266;51.522;6.302;2023-02-11T03:34:12;15.32;;;6.28;;
22201;SDS011;11266;51.522;6.302;2023-02-11T03:35:23;15.45;;;6.85;;
22201;SDS011;11266;51.522;6.302;2023-02-11T03:36:23;17.48;;;7.00;;
22201;SDS011;11266;51.522;6.302;2023-02-11T03:38:21;16.85;;;6.80;;
22201;SDS011;11266;51.522;6.302;2023-02-11T03:39:09;17.60;;;7.65;;
22201;SDS011;11266;51.522;6.302;2023-02-11T03:40:05;12.43;;;6.82;;
22201;SDS011;11266;51.522;6.302;2023-02-11T03:40:54;15.20;;;6.78;;
22201;SDS011;11266;51.522;6.302;2023-02-11T03:41:41;12.07;;;6.32;;
22201;SDS011;11266;51.522;6.302;2023-02-11T03:42:32;16.05;;;7.53;;
22201;SDS011;11266;51.522;6.302;2023-02-11T03:43:27;20.35;;;8.10;;
22201;SDS011;11266;51.522;6.302;2023-02-11T03:44:17;15.90;;;7.25;;
22201;SDS011;11266;51.522;6.302;2023-02-11T03:45:06;18.58;;;7.22;;
22201;SDS011;11266;51.522;6.302;2023-02-11T03:45:54;14.23;;;7.00;;
22201;SDS011;11266;51.522;6.302;2023-02-11T03:46:42;17.33;;;7.65;;
22201;SDS011;11266;51.522;6.302;2023-02-11T03:47:33;14.98;;;7.45;;
22201;SDS011;11266;51.522;6.302;2023-02-11T03:48:24;13.00;;;6.70;;
22201;SDS011;11266;51.522;6.302;2023-02-11T03:49:31;13.98;;;6.78;;
22201;SDS011;11266;51.522;6.302;2023-02-11T03:50:19;14.15;;;6.47;;
22201;SDS011;11266;51.522;6.302;2023-02-11T03:51:06;14.38;;;6.95;;
22201;SDS011;11266;51.522;6.302;2023-02-11T03:51:54;11.52;;;6.43;;
22201;SDS011;11266;51.522;6.302;2023-02-11T03:52:41;17.30;;;6.68;;
22201;SDS011;11266;51.522;6.302;2023-02-11T03:53:27;15.70;;;6.45;;
22201;SDS011;11266;51.522;6.302;2023-02-11T03:54:14;14.45;;;6.78;;
22201;SDS011;11266;51.522;6.302;2023-02-11T03:55:04;11.13;;;5.82;;
22201;SDS011;11266;51.522;6.302;2023-02-11T03:55:55;13.95;;;6.07;;
22201;SDS011;11266;51.522;6.302;2023-02-11T03:56:50;18.35;;;6.93;;
22201;SDS011;11266;51.522;6.302;2023-02-11T03:57:38;14.65;;;6.40;;
22201;SDS011;11266;51.522;6.302;2023-02-11T03:58:24;15.35;;;6.70;;
22201;SDS011;11266;51.522;6.302;2023-02-11T03:59:10;16.65;;;6.63;;
22201;SDS011;11266;51.522;6.302;2023-02-11T03:59:56;13.70;;;6.47;;
22201;SDS011;11266;51.522;6.302;2023-02-11T04:00:43;14.80;;;6.05;;
22201;SDS011;11266;51.522;6.302;2023-02-11T04:01:29;10.73;;;5.88;;
22201;SDS011;11266;51.522;6.302;2023-02-11T04:02:15;17.63;;;7.05;;
22201;SDS011;11266;51.522;6.302;2023-02-11T04:03:01;14.75;;;6.30;;
22201;SDS011;11266;51.522;6.302;2023-02-11T04:03:47;15.68;;;6.57;;
22201;SDS011;11266;51.522;6.302;2023-02-11T04:04:33;15.23;;;6.40;;
22201;SDS011;11266;51.522;6.302;2023-02-11T04:05:19;16.10;;;6.68;;
22201;SDS011;11266;51.522;6.302;2023-02-11T04:06:07;17.98;;;7.35;;
22201;SDS011;11266;51.522;6.302;2023-02-11T04:06:53;18.38;;;7.05;;
22201;SDS011;11266;51.522;6.302;2023-02-11T04:07:38;18.42;;;7.45;;
22201;SDS011;11266;51.522;6.302;2023-02-11T04:08:24;12.38;;;6.43;;
22201;SDS011;11266;51.522;6.302;2023-02-11T04:09:10;16.73;;;7.03;;
22201;SDS011;11266;51.522;6.302;2023-02-11T04:09:56;13.80;;;6.82;;
22201;SDS011;11266;51.522;6.302;2023-02-11T04:10:42;13.63;;;6.35;;
22201;SDS011;11266;51.522;6.302;2023-02-11T04:11:27;16.30;;;7.07;;
22201;SDS011;11266;51.522;6.302;2023-02-11T04:12:13;14.75;;;7.43;;
22201;SDS011;11266;51.522;6.302;2023-02-11T04:12:58;20.08;;;7.15;;
22201;SDS011;11266;51.522;6.302;2023-02-11T04:13:46;11.68;;;6.50;;
22201;SDS011;11266;51.522;6.302;2023-02-11T04:14:32;13.70;;;6.50;;
22201;SDS011;11266;51.522;6.302;2023-02-11T04:15:20;15.73;;;7.60;;
22201;SDS011;11266;51.522;6.302;2023-02-11T04:16:05;13.10;;;6.28;;
22201;SDS011;11266;51.522;6.302;2023-02-11T04:16:51;16.83;;;7.00;;
22201;SDS011;11266;51.522;6.302;2023-02-11T04:17:37;14.60;;;6.97;;
22201;SDS011;11266;51.522;6.302;2023-02-11T04:18:23;14.55;;;6.80;;
22201;SDS011;11266;51.522;6.302;2023-02-11T04:19:08;16.77;;;7.53;;
22201;SDS011;11266;51.522;6.302;2023-02-11T04:19:54;15.68;;;7.13;;
22201;SDS011;11266;51.522;6.302;2023-02-11T04:20:40;16.88;;;6.60;;
22201;SDS011;11266;51.522;6.302;2023-02-11T04:21:25;17.10;;;6.85;;
22201;SDS011;11266;51.522;6.302;2023-02-11T04:22:11;15.38;;;7.03;;
22201;SDS011;11266;51.522;6.302;2023-02-11T04:22:57;12.60;;;6.40;;
22201;SDS011;11266;51.522;6.302;2023-02-11T04:23:42;14.88;;;6.57;;
22201;SDS011;11266;51.522;6.302;2023-02-11T04:24:28;15.20;;;6.95;;
22201;SDS011;11266;51.522;6.302;2023-02-11T04:25:13;14.88;;;6.80;;
22201;SDS011;11266;51.522;6.302;2023-02-11T04:26:04;16.55;;;6.93;;
22201;SDS011;11266;51.522;6.302;2023-02-11T04:26:50;12.80;;;6.20;;
22201;SDS011;11266;51.522;6.302;2023-02-11T04:27:36;14.80;;;6.80;;
22201;SDS011;11266;51.522;6.302;2023-02-11T04:28:22;15.50;;;7.65;;
22201;SDS011;11266;51.522;6.302;2023-02-11T04:29:08;15.10;;;7.07;;
22201;SDS011;11266;51.522;6.302;2023-02-11T04:29:53;16.27;;;7.43;;
22201;SDS011;11266;51.522;6.302;2023-02-11T04:30:39;12.77;;;6.53;;
22201;SDS011;11266;51.522;6.302;2023-02-11T04:31:25;12.63;;;6.32;;
22201;SDS011;11266;51.522;6.302;2023-02-11T04:32:10;12.35;;;7.03;;
22201;SDS011;11266;51.522;6.302;2023-02-11T04:32:57;18.15;;;7.10;;
22201;SDS011;11266;51.522;6.302;2023-02-11T04:33:43;12.82;;;6.65;;
22201;SDS011;11266;51.522;6.302;2023-02-11T04:34:28;17.20;;;7.85;;
22201;SDS011;11266;51.522;6.302;2023-02-11T04:35:14;13.60;;;6.35;;
22201;SDS011;11266;51.522;6.302;2023-02-11T04:35:59;16.85;;;7.65;;
22201;SDS011;11266;51.522;6.302;2023-02-11T04:36:45;16.73;;;7.20;;
22201;SDS011;11266;51.522;6.302;2023-02-11T04:37:31;9.65;;;5.63;;
22201;SDS011;11266;51.522;6.302;2023-02-11T04:38:16;15.82;;;6.65;;
22201;SDS011;11266;51.522;6.302;2023-02-11T04:39:02;16.98;;;6.95;;
22201;SDS011;11266;51.522;6.302;2023-02-11T04:39:48;18.80;;;8.52;;
22201;SDS011;11266;51.522;6.302;2023-02-11T04:40:34;16.67;;;7.40;;
22201;SDS011;11266;51.522;6.302;2023-02-11T04:41:19;13.82;;;6.55;;
22201;SDS011;11266;51.522;6.302;2023-02-11T04:42:05;15.27;;;7.18;;
22201;SDS011;11266;51.522;6.302;2023-02-11T04:42:51;19.30;;;6.95;;
22201;SDS011;11266;51.522;6.302;2023-02-11T04:43:37;13.52;;;6.63;;
22201;SDS011;11266;51.522;6.302;2023-02-11T04:44:22;12.43;;;6.63;;
22201;SDS011;11266;51.522;6.302;2023-02-11T04:45:08;17.88;;;7.03;;
22201;SDS011;11266;51.522;6.302;2023-02-11T04:45:56;16.08;;;7.65;;
22201;SDS011;11266;51.522;6.302;2023-02-11T04:46:42;15.95;;;7.25;;
22201;SDS011;11266;51.522;6.302;2023-02-11T04:47:28;15.07;;;7.50;;
22201;SDS011;11266;51.522;6.302;2023-02-11T04:48:14;14.13;;;6.97;;
22201;SDS011;11266;51.522;6.302;2023-02-11T04:49:00;15.93;;;7.22;;
22201;SDS011;11266;51.522;6.302;2023-02-11T04:49:45;16.35;;;7.85;;
22201;SDS011;11266;51.522;6.302;2023-02-11T04:50:31;16.90;;;7.40;;
22201;SDS011;11266;51.522;6.302;2023-02-11T04:51:17;17.35;;;7.55;;
22201;SDS011;11266;51.522;6.302;2023-02-11T04:52:04;23.20;;;8.20;;
22201;SDS011;11266;51.522;6.302;2023-02-11T04:52:50;15.18;;;7.13;;
22201;SDS011;11266;51.522;6.302;2023-02-11T04:53:36;15.25;;;8.88;;
22201;SDS011;11266;51.522;6.302;2023-02-11T04:54:21;15.20;;;7.07;;
22201;SDS011;11266;51.522;6.302;2023-02-11T04:55:09;17.38;;;7.55;;
22201;SDS011;11266;51.522;6.302;2023-02-11T04:55:55;19.98;;;7.93;;
22201;SDS011;11266;51.522;6.302;2023-02-11T04:56:43;16.10;;;7.38;;
22201;SDS011;11266;51.522;6.302;2023-02-11T04:57:29;17.40;;;7.35;;
22201;SDS011;11266;51.522;6.302;2023-02-11T04:58:15;14.73;;;7.35;;
22201;SDS011;11266;51.522;6.302;2023-02-11T04:59:01;16.73;;;8.32;;
22201;SDS011;11266;51.522;6.302;2023-02-11T04:59:47;16.90;;;7.65;;
22201;SDS011;11266;51.522;6.302;2023-02-11T05:00:33;12.93;;;6.70;;
22201;SDS011;11266;51.522;6.302;2023-02-11T05:01:18;13.02;;;7.28;;
22201;SDS011;11266;51.522;6.302;2023-02-11T05:02:04;19.13;;;7.55;;
22201;SDS011;11266;51.522;6.302;2023-02-11T05:02:49;17.42;;;8.27;;
22201;SDS011;11266;51.522;6.302;2023-02-11T05:03:35;17.55;;;7.60;;
22201;SDS011;11266;51.522;6.302;2023-02-11T05:04:24;15.40;;;6.82;;
22201;SDS011;11266;51.522;6.302;2023-02-11T05:05:09;16.00;;;7.35;;
22201;SDS011;11266;51.522;6.302;2023-02-11T05:05:55;14.50;;;6.93;;
22201;SDS011;11266;51.522;6.302;2023-02-11T05:06:40;13.77;;;6.20;;
22201;SDS011;11266;51.522;6.302;2023-02-11T05:07:26;13.15;;;6.60;;
22201;SDS011;11266;51.522;6.302;2023-02-11T05:08:12;13.50;;;6.97;;
22201;SDS011;11266;51.522;6.302;2023-02-11T05:08:57;16.27;;;6.75;;
22201;SDS011;11266;51.522;6.302;2023-02-11T05:09:43;13.65;;;6.38;;
22201;SDS011;11266;51.522;6.302;2023-02-11T05:10:31;15.63;;;7.28;;
22201;SDS011;11266;51.522;6.302;2023-02-11T05:11:18;14.07;;;7.38;;
22201;SDS011;11266;51.522;6.302;2023-02-11T05:12:05;15.82;;;7.45;;
22201;SDS011;11266;51.522;6.302;2023-02-11T05:12:54;11.23;;;6.97;;
22201;SDS011;11266;51.522;6.302;2023-02-11T05:13:40;12.95;;;6.82;;
22201;SDS011;11266;51.522;6.302;2023-02-11T05:14:25;15.80;;;7.32;;
22201;SDS011;11266;51.522;6.302;2023-02-11T05:15:11;15.73;;;6.85;;
22201;SDS011;11266;51.522;6.302;2023-02-11T05:15:57;16.15;;;7.18;;